Weerstation
Sluispark-LeuvenLeuven-Sluispark



Het weer levert geen direct gevaar op.    Er zijn geen waarschuwingen afgegeven.

Nabijgelegen vliegvelden - METAR rapporten

   
EBBR - Wilsele bij Leuven
Gewijzigd: 11-12-2018 20:20
Helder    Wind: ZW 7.4 km/h
Helder
Wind: Wind: ZW 7.4 km/h
Temperatuur: 3°C
Voelt als: 1°C
Dauwpunt: 2°C
Vochtigheid: 93%
Barometer: 1025 hPa
Zicht: meer dan 10 km
Bewolking: Helder
EBBR 111920Z 22004KT CAVOK 03/02 Q1025 NOSIG
EBAW - Antwerp
Gewijzigd: 11-12-2018 20:20
Helder    Wind: ZW 1.9 km/h
Helder
Wind: Wind: ZW 1.9 km/h
Temperatuur: 1°C
Dauwpunt: 1°C
Vochtigheid: 100%
Barometer: 1025 hPa
Zicht: meer dan 10 km
Bewolking: Helder
EBAW 111920Z 22001KT CAVOK 01/01 Q1025 NOSIG
EBLG - Li├Ęge
Gewijzigd: 11-12-2018 20:20
Helder    Wind: Westen 7.4 km/h
Helder
Wind: Wind: Westen 7.4 km/h
Temperatuur: 3°C
Voelt als: 1°C
Dauwpunt: 2°C
Vochtigheid: 93%
Barometer: 1024 hPa
Zicht: meer dan 10 km
Bewolking: Helder
EBLG 111920Z 28004KT CAVOK 03/02 Q1024 NOSIG
EBCV - Mons/Bergen
Gewijzigd: 11-12-2018 20:25
Grotendeels bewolkt    Wind: varieert 1.9 km/h
Grotendeels bewolkt
Wind: Wind: varieert 1.9 km/h
Temperatuur: 3°C
Dauwpunt: 2°C
Vochtigheid: 93%
Barometer: 1025 hPa
Bewolking: Grotendeels bewolkt
Zicht: meer dan 10 km
Bewolking: Grotendeels bewolkt 1402.1 m
EBCV 111925Z AUTO VRB01KT 9999 BKN046/// 03/02 Q1025 BLU
EHBK - Maastricht
Gewijzigd: 11-12-2018 20:25
Bewolking    Wind: Westen 5.6 km/h
Bewolking
Wind: Wind: Westen 5.6 km/h
Temperatuur: 4°C
Voelt als: 3°C
Dauwpunt: 3°C
Vochtigheid: 93%
Barometer: 1024 hPa
Bewolking: Bewolking
Zicht: meer dan 10 km
Bewolking: Grotendeels bewolkt 640.1 m,
Grotendeels bewolkt 731.5 m,
Bewolking 853.4 m
EHBK 111925Z AUTO 27003KT 240V300 9999 BKN021 BKN024 OVC028 04/03 Q1024 NOSIG
ELLX - Luxemburg
Gewijzigd: 11-12-2018 20:20
Helder    Wind: varieert 1.9 km/h
Helder
Wind: Wind: varieert 1.9 km/h
Temperatuur: 0°C
Dauwpunt: -2°C
Vochtigheid: 87%
Barometer: 1024 hPa
Zicht: meer dan 10 km
Bewolking: Helder
ELLX 111920Z VRB01KT CAVOK M00/M02 Q1024 NOSIG
EBOS - Oostende
Gewijzigd: 11-12-2018 20:20
Grotendeels bewolkt    Wind: Zuiden 5.6 km/h
Grotendeels bewolkt
Wind: Wind: Zuiden 5.6 km/h
Temperatuur: 3°C
Voelt als: 2°C
Dauwpunt: 2°C
Vochtigheid: 93%
Barometer: 1025 hPa
Bewolking: Grotendeels bewolkt
Zicht: meer dan 10 km
Bewolking: Grotendeels bewolkt 1280.2 m
EBOS 111920Z 19003KT 9999 BKN042 03/02 Q1025 NOSIG
  

Script ontwikkeld door  Saratoga-weather.org Aangepast voor de template door  Weerstation Leuven

U vindt ons ook hier:

UK Metoffice

WeatherCloud

European Weather Network

Weather Underground

Benelux Weather Network

AWEKAS

WeatherlinkIP

Het Weer Aktueel

Apparatuur in gebruik:

Weer-station
Davis VP2 weatherstation

Weer-programma
Meteobridge

Weer-computer
D-Link DIR-505

Webleverancier
Robohost

Davis VP2 weatherstation

Meteobridge

D-Link DIR-505

Robohost